HAZ385 ROAH-RJTT
Flight info
| Callsign | HAZ385 |
|---|---|
| Flight time | N/A |
| Altitude | 39000 |
| Route | AMAMI Y574 SHIBK Y57 SUKBO Y571 BILLY Y21 AKSEL |
| Aircraft | A20N/M-SDE2E3FGHIRWXY/LB1 |
Departure
| Time | 2026-04-29 04:36 |
|---|---|
| Airport | Naha International Airport (ROAH) |
Arrival
| Time | N/A |
|---|---|
| Airport | Tokyo Haneda International Airport (RJTT) |
| Time | Latitude | Longitude | Altitude | Speed | Heading |
|---|---|---|---|---|---|
| 2026-04-29 03:44 | 26.20713 | 127.64922 | 28 ft | 0 kts | 28° |
| 2026-04-29 04:25 | 26.20703 | 127.64915 | 28 ft | 2 kts | 26° |
| 2026-04-29 04:25 | 26.20690 | 127.64907 | 27 ft | 2 kts | 27° |
| 2026-04-29 04:25 | 26.20678 | 127.64900 | 26 ft | 0 kts | 27° |
| 2026-04-29 04:26 | 26.20667 | 127.64896 | 26 ft | 2 kts | 3° |
| 2026-04-29 04:26 | 26.20653 | 127.64898 | 26 ft | 2 kts | 334° |
| 2026-04-29 04:26 | 26.20641 | 127.64908 | 27 ft | 2 kts | 303° |
| 2026-04-29 04:26 | 26.20636 | 127.64923 | 28 ft | 1 kts | 274° |
| 2026-04-29 04:27 | 26.20636 | 127.64930 | 29 ft | 1 kts | 265° |
| 2026-04-29 04:27 | 26.20636 | 127.64933 | 29 ft | 0 kts | 267° |
| 2026-04-29 04:29 | 26.20636 | 127.64930 | 29 ft | 2 kts | 267° |
| 2026-04-29 04:29 | 26.20633 | 127.64873 | 23 ft | 12 kts | 267° |
| 2026-04-29 04:29 | 26.20641 | 127.64774 | 18 ft | 13 kts | 314° |
| 2026-04-29 04:30 | 26.20700 | 127.64742 | 19 ft | 3 kts | 355° |
| 2026-04-29 04:30 | 26.20704 | 127.64741 | 19 ft | 0 kts | 356° |
| 2026-04-29 04:31 | 26.20707 | 127.64741 | 19 ft | 1 kts | 356° |
| 2026-04-29 04:31 | 26.20727 | 127.64740 | 19 ft | 4 kts | 358° |
| 2026-04-29 04:31 | 26.20773 | 127.64738 | 20 ft | 8 kts | 358° |
| 2026-04-29 04:32 | 26.20845 | 127.64735 | 21 ft | 12 kts | 359° |
| 2026-04-29 04:32 | 26.20942 | 127.64728 | 22 ft | 14 kts | 346° |
| 2026-04-29 04:32 | 26.20979 | 127.64642 | 25 ft | 13 kts | 268° |
| 2026-04-29 04:32 | 26.20954 | 127.64551 | 28 ft | 7 kts | 230° |
| 2026-04-29 04:33 | 26.20938 | 127.64535 | 28 ft | 1 kts | 216° |
| 2026-04-29 04:33 | 26.20911 | 127.64524 | 28 ft | 7 kts | 181° |
| 2026-04-29 04:33 | 26.20883 | 127.64526 | 28 ft | 0 kts | 178° |
| 2026-04-29 04:35 | 26.20853 | 127.64527 | 27 ft | 17 kts | 177° |
| 2026-04-29 04:35 | 26.20453 | 127.64546 | 25 ft | 93 kts | 177° |
| 2026-04-29 04:36 | 26.19598 | 127.64586 | 32 ft | 151 kts | 176° |
| 2026-04-29 04:36 | 26.18464 | 127.64629 | 401 ft | 166 kts | 176° |
| 2026-04-29 04:36 | 26.17297 | 127.64658 | 1009 ft | 170 kts | 175° |
| 2026-04-29 04:36 | 26.16098 | 127.64716 | 1634 ft | 177 kts | 175° |
| 2026-04-29 04:37 | 26.14815 | 127.64786 | 2075 ft | 192 kts | 176° |
| 2026-04-29 04:37 | 26.13430 | 127.64859 | 2483 ft | 209 kts | 177° |
| 2026-04-29 04:37 | 26.11888 | 127.64934 | 2835 ft | 232 kts | 178° |
| 2026-04-29 04:37 | 26.10261 | 127.65012 | 3536 ft | 238 kts | 179° |
| 2026-04-29 04:38 | 26.08557 | 127.65092 | 4117 ft | 252 kts | 179° |
| 2026-04-29 04:38 | 26.06753 | 127.65174 | 4777 ft | 263 kts | 179° |
| 2026-04-29 04:38 | 26.04937 | 127.65262 | 5614 ft | 266 kts | 179° |
| 2026-04-29 04:38 | 26.03138 | 127.65746 | 6431 ft | 275 kts | 155° |
| 2026-04-29 04:39 | 26.01683 | 127.67141 | 7251 ft | 285 kts | 128° |
| 2026-04-29 04:39 | 26.00916 | 127.69210 | 8040 ft | 297 kts | 100° |
| 2026-04-29 04:39 | 26.00912 | 127.71493 | 8856 ft | 304 kts | 89° |
| 2026-04-29 04:39 | 26.01267 | 127.73820 | 9533 ft | 313 kts | 72° |
| 2026-04-29 04:40 | 26.02288 | 127.75971 | 10307 ft | 318 kts | 53° |
| 2026-04-29 04:40 | 26.03700 | 127.77912 | 10802 ft | 331 kts | 49° |
| 2026-04-29 04:40 | 26.05231 | 127.79890 | 11206 ft | 349 kts | 49° |
| 2026-04-29 04:40 | 26.06859 | 127.82017 | 11525 ft | 367 kts | 49° |
| 2026-04-29 04:41 | 26.08530 | 127.84251 | 11754 ft | 385 kts | 50° |
| 2026-04-29 04:41 | 26.10249 | 127.86584 | 12134 ft | 398 kts | 50° |
| 2026-04-29 04:41 | 26.12018 | 127.89006 | 12734 ft | 404 kts | 51° |
| 2026-04-29 04:41 | 26.13777 | 127.91420 | 13390 ft | 407 kts | 51° |
| 2026-04-29 04:42 | 26.15596 | 127.93838 | 14008 ft | 410 kts | 46° |
| 2026-04-29 04:42 | 26.17683 | 127.96043 | 14635 ft | 412 kts | 38° |
| 2026-04-29 04:42 | 26.20003 | 127.97910 | 15237 ft | 414 kts | 31° |
| 2026-04-29 04:42 | 26.22433 | 127.99577 | 15817 ft | 417 kts | 29° |
| 2026-04-29 04:43 | 26.24939 | 128.01239 | 16390 ft | 420 kts | 28° |
| 2026-04-29 04:43 | 26.27459 | 128.02908 | 16949 ft | 424 kts | 29° |
| 2026-04-29 04:43 | 26.30016 | 128.04616 | 17526 ft | 427 kts | 29° |
| 2026-04-29 04:43 | 26.32556 | 128.06323 | 18036 ft | 431 kts | 29° |
| 2026-04-29 04:44 | 26.35135 | 128.08061 | 18540 ft | 434 kts | 29° |
| 2026-04-29 04:44 | 26.37733 | 128.09819 | 19016 ft | 438 kts | 29° |
| 2026-04-29 04:44 | 26.40333 | 128.11580 | 19460 ft | 442 kts | 29° |
| 2026-04-29 04:44 | 26.42968 | 128.13365 | 19938 ft | 444 kts | 29° |
| 2026-04-29 04:45 | 26.45612 | 128.15158 | 20374 ft | 448 kts | 29° |
| 2026-04-29 04:45 | 26.48296 | 128.16980 | 20831 ft | 450 kts | 29° |
| 2026-04-29 04:45 | 26.50974 | 128.18800 | 21265 ft | 453 kts | 29° |
| 2026-04-29 04:45 | 26.53658 | 128.20624 | 21677 ft | 455 kts | 29° |
| 2026-04-29 04:46 | 26.56397 | 128.22488 | 22092 ft | 458 kts | 29° |
| 2026-04-29 04:46 | 26.59107 | 128.24333 | 22487 ft | 461 kts | 29° |
| 2026-04-29 04:46 | 26.61841 | 128.26196 | 22872 ft | 464 kts | 29° |
| 2026-04-29 04:46 | 26.64629 | 128.28096 | 23260 ft | 467 kts | 30° |
| 2026-04-29 04:47 | 26.67294 | 128.30174 | 23634 ft | 472 kts | 36° |
| 2026-04-29 04:47 | 26.69752 | 128.32608 | 24036 ft | 476 kts | 43° |
| 2026-04-29 04:47 | 26.71969 | 128.35375 | 24423 ft | 479 kts | 49° |
| 2026-04-29 04:47 | 26.74070 | 128.38310 | 24794 ft | 482 kts | 51° |
| 2026-04-29 04:48 | 26.76120 | 128.41248 | 25132 ft | 486 kts | 51° |
| 2026-04-29 04:48 | 26.78208 | 128.44240 | 25500 ft | 488 kts | 51° |
| 2026-04-29 04:48 | 26.80316 | 128.47244 | 25861 ft | 490 kts | 50° |
| 2026-04-29 04:48 | 26.82423 | 128.50227 | 26196 ft | 493 kts | 50° |
| 2026-04-29 04:49 | 26.84544 | 128.53223 | 26515 ft | 495 kts | 50° |
| 2026-04-29 04:49 | 26.86713 | 128.56284 | 26836 ft | 498 kts | 50° |
| 2026-04-29 04:49 | 26.88844 | 128.59294 | 27109 ft | 501 kts | 50° |
| 2026-04-29 04:49 | 26.91050 | 128.62328 | 27394 ft | 502 kts | 46° |
| 2026-04-29 04:50 | 26.93529 | 128.65051 | 27699 ft | 502 kts | 39° |
| 2026-04-29 04:50 | 26.96357 | 128.67406 | 28045 ft | 499 kts | 30° |
| 2026-04-29 04:50 | 26.99357 | 128.69350 | 28436 ft | 497 kts | 26° |
| 2026-04-29 04:50 | 27.02372 | 128.71164 | 28827 ft | 496 kts | 25° |
| 2026-04-29 04:51 | 27.05432 | 128.72978 | 29220 ft | 495 kts | 25° |
| 2026-04-29 04:51 | 27.08481 | 128.74793 | 29643 ft | 494 kts | 25° |
| 2026-04-29 04:51 | 27.11502 | 128.76601 | 30034 ft | 493 kts | 26° |
| 2026-04-29 04:51 | 27.14523 | 128.78421 | 30430 ft | 492 kts | 26° |
| 2026-04-29 04:52 | 27.17523 | 128.80238 | 30820 ft | 491 kts | 26° |
| 2026-04-29 04:52 | 27.20531 | 128.82062 | 31178 ft | 491 kts | 26° |
| 2026-04-29 04:52 | 27.23512 | 128.83876 | 31536 ft | 490 kts | 26° |
| 2026-04-29 04:52 | 27.26511 | 128.85701 | 31908 ft | 489 kts | 25° |
| 2026-04-29 04:53 | 27.29515 | 128.87532 | 32262 ft | 489 kts | 25° |
| 2026-04-29 04:53 | 27.32494 | 128.89349 | 32599 ft | 488 kts | 25° |
| 2026-04-29 04:53 | 27.35477 | 128.91170 | 32938 ft | 487 kts | 25° |
| 2026-04-29 04:53 | 27.38420 | 128.92966 | 33282 ft | 486 kts | 25° |
| 2026-04-29 04:54 | 27.41432 | 128.94806 | 33663 ft | 485 kts | 25° |
| 2026-04-29 04:54 | 27.44383 | 128.96611 | 34050 ft | 483 kts | 25° |
| 2026-04-29 04:54 | 27.47319 | 128.98407 | 34405 ft | 481 kts | 25° |
| 2026-04-29 04:54 | 27.50233 | 129.00189 | 34726 ft | 480 kts | 25° |
| 2026-04-29 04:55 | 27.53169 | 129.01988 | 35071 ft | 478 kts | 25° |
| 2026-04-29 04:55 | 27.56100 | 129.03786 | 35419 ft | 476 kts | 25° |
| 2026-04-29 04:55 | 27.59000 | 129.05565 | 35720 ft | 475 kts | 25° |
| 2026-04-29 04:55 | 27.61918 | 129.07353 | 36005 ft | 474 kts | 24° |
| 2026-04-29 04:56 | 27.64802 | 129.09123 | 36247 ft | 473 kts | 24° |
| 2026-04-29 04:56 | 27.67682 | 129.10890 | 36487 ft | 472 kts | 25° |
| 2026-04-29 04:56 | 27.70548 | 129.12653 | 36709 ft | 472 kts | 24° |
| 2026-04-29 04:56 | 27.73461 | 129.14445 | 36938 ft | 471 kts | 24° |
| 2026-04-29 04:57 | 27.76310 | 129.16199 | 37128 ft | 471 kts | 24° |
| 2026-04-29 04:57 | 27.79212 | 129.17984 | 37304 ft | 471 kts | 24° |
| 2026-04-29 04:57 | 27.82106 | 129.19766 | 37462 ft | 472 kts | 24° |
| 2026-04-29 04:57 | 27.84986 | 129.21542 | 37572 ft | 473 kts | 24° |
| 2026-04-29 04:58 | 27.87882 | 129.23329 | 37691 ft | 473 kts | 24° |
| 2026-04-29 04:58 | 27.90747 | 129.25098 | 37832 ft | 474 kts | 24° |
| 2026-04-29 04:58 | 27.93665 | 129.26898 | 37953 ft | 474 kts | 24° |
| 2026-04-29 04:58 | 27.96537 | 129.28671 | 38074 ft | 474 kts | 24° |
| 2026-04-29 04:59 | 27.99441 | 129.30469 | 38180 ft | 475 kts | 24° |
| 2026-04-29 04:59 | 28.05251 | 129.34065 | 38332 ft | 477 kts | 24° |
| 2026-04-29 04:59 | 28.08159 | 129.35866 | 38433 ft | 477 kts | 24° |
| 2026-04-29 05:00 | 28.11069 | 129.37669 | 38534 ft | 477 kts | 24° |
| 2026-04-29 05:00 | 28.16881 | 129.41278 | 38688 ft | 478 kts | 24° |
| 2026-04-29 05:01 | 28.22765 | 129.44934 | 38839 ft | 479 kts | 24° |
| 2026-04-29 05:01 | 28.28593 | 129.48560 | 38954 ft | 480 kts | 24° |
| 2026-04-29 05:02 | 28.33488 | 129.51610 | 39036 ft | 481 kts | 24° |
| 2026-04-29 05:02 | 28.39826 | 129.56886 | 39062 ft | 493 kts | 43° |
| 2026-04-29 05:03 | 28.43800 | 129.63332 | 39063 ft | 500 kts | 62° |
| 2026-04-29 05:04 | 28.46976 | 129.81943 | 39062 ft | 504 kts | 84° |
| 2026-04-29 05:04 | 28.47363 | 129.85873 | 39065 ft | 504 kts | 83° |
| 2026-04-29 05:05 | 28.48192 | 129.93758 | 39065 ft | 504 kts | 83° |
| 2026-04-29 05:05 | 28.49045 | 130.01674 | 39064 ft | 504 kts | 83° |
| 2026-04-29 05:06 | 28.50269 | 130.09483 | 39066 ft | 503 kts | 74° |
| 2026-04-29 05:06 | 28.52589 | 130.16933 | 39057 ft | 502 kts | 64° |
| 2026-04-29 05:07 | 28.55976 | 130.23805 | 39066 ft | 498 kts | 53° |
| 2026-04-29 05:07 | 28.59923 | 130.30257 | 39064 ft | 499 kts | 52° |
| 2026-04-29 05:08 | 28.63884 | 130.36702 | 39062 ft | 499 kts | 52° |
| 2026-04-29 05:08 | 28.67850 | 130.43242 | 39064 ft | 499 kts | 52° |
| 2026-04-29 05:09 | 28.71750 | 130.49712 | 39059 ft | 500 kts | 52° |
| 2026-04-29 05:09 | 28.75673 | 130.56229 | 39060 ft | 500 kts | 52° |
| 2026-04-29 05:10 | 28.79610 | 130.62770 | 39063 ft | 500 kts | 52° |
| 2026-04-29 05:10 | 28.83527 | 130.69289 | 39065 ft | 500 kts | 53° |
| 2026-04-29 05:11 | 28.87443 | 130.75821 | 39067 ft | 501 kts | 53° |
| 2026-04-29 05:11 | 28.91371 | 130.82382 | 39054 ft | 501 kts | 53° |
| 2026-04-29 05:12 | 28.95290 | 130.88934 | 39065 ft | 501 kts | 53° |
| 2026-04-29 05:12 | 28.99215 | 130.95515 | 39057 ft | 502 kts | 53° |
| 2026-04-29 05:13 | 29.03135 | 131.02094 | 39057 ft | 502 kts | 53° |
| 2026-04-29 05:13 | 29.07064 | 131.08697 | 39056 ft | 502 kts | 53° |
| 2026-04-29 05:14 | 29.10969 | 131.15274 | 39056 ft | 502 kts | 53° |
| 2026-04-29 05:14 | 29.14901 | 131.21902 | 39059 ft | 502 kts | 53° |
| 2026-04-29 05:15 | 29.18812 | 131.28511 | 39055 ft | 502 kts | 53° |
| 2026-04-29 05:15 | 29.22700 | 131.35091 | 39055 ft | 502 kts | 53° |
| 2026-04-29 05:16 | 29.26609 | 131.41713 | 39055 ft | 503 kts | 52° |
| 2026-04-29 05:16 | 29.30513 | 131.48337 | 39049 ft | 502 kts | 53° |
| 2026-04-29 05:17 | 29.34391 | 131.54933 | 39053 ft | 502 kts | 52° |
| 2026-04-29 05:17 | 29.38306 | 131.61597 | 39053 ft | 502 kts | 53° |
| 2026-04-29 05:18 | 29.42181 | 131.68208 | 39048 ft | 502 kts | 53° |
| 2026-04-29 05:18 | 29.46080 | 131.74870 | 39052 ft | 502 kts | 53° |
| 2026-04-29 05:19 | 29.49962 | 131.81519 | 39051 ft | 502 kts | 53° |
| 2026-04-29 05:19 | 29.53821 | 131.88136 | 39046 ft | 502 kts | 53° |
| 2026-04-29 05:20 | 29.57700 | 131.94798 | 39048 ft | 502 kts | 53° |
| 2026-04-29 05:20 | 29.61571 | 132.01460 | 39050 ft | 502 kts | 53° |
| 2026-04-29 05:21 | 29.65502 | 132.08092 | 39041 ft | 501 kts | 50° |
| 2026-04-29 05:21 | 29.69844 | 132.14352 | 39043 ft | 499 kts | 47° |
| 2026-04-29 05:22 | 29.74263 | 132.20509 | 39049 ft | 499 kts | 47° |
| 2026-04-29 05:22 | 29.78661 | 132.26659 | 39044 ft | 499 kts | 47° |
| 2026-04-29 05:23 | 29.83051 | 132.32828 | 39042 ft | 499 kts | 47° |
| 2026-04-29 05:23 | 29.87442 | 132.39011 | 39042 ft | 500 kts | 47° |
| 2026-04-29 05:24 | 29.91821 | 132.45192 | 39047 ft | 500 kts | 47° |
| 2026-04-29 05:24 | 29.96240 | 132.51437 | 39042 ft | 500 kts | 46° |
| 2026-04-29 05:25 | 30.00621 | 132.57640 | 39038 ft | 500 kts | 46° |
| 2026-04-29 05:25 | 30.05013 | 132.63864 | 39037 ft | 501 kts | 46° |
| 2026-04-29 05:26 | 30.09414 | 132.70114 | 39035 ft | 501 kts | 47° |
| 2026-04-29 05:26 | 30.13809 | 132.76363 | 39034 ft | 502 kts | 46° |
| 2026-04-29 05:27 | 30.18185 | 132.82599 | 39039 ft | 502 kts | 47° |
| 2026-04-29 05:27 | 30.24765 | 132.91991 | 39038 ft | 502 kts | 46° |
| 2026-04-29 05:28 | 30.29166 | 132.98283 | 39035 ft | 502 kts | 46° |
| 2026-04-29 05:28 | 30.33553 | 133.04562 | 39032 ft | 503 kts | 46° |
| 2026-04-29 05:29 | 30.37929 | 133.10841 | 39028 ft | 503 kts | 46° |
| 2026-04-29 05:29 | 30.42315 | 133.17143 | 39024 ft | 503 kts | 46° |
| 2026-04-29 05:30 | 30.46678 | 133.23419 | 39029 ft | 503 kts | 46° |
| 2026-04-29 05:30 | 30.51048 | 133.29719 | 39027 ft | 503 kts | 46° |
| 2026-04-29 05:31 | 30.55423 | 133.36037 | 39023 ft | 503 kts | 46° |
| 2026-04-29 05:31 | 30.59803 | 133.42369 | 39020 ft | 503 kts | 46° |
| 2026-04-29 05:32 | 30.64185 | 133.48717 | 39018 ft | 503 kts | 46° |
| 2026-04-29 05:32 | 30.68554 | 133.55052 | 39019 ft | 502 kts | 46° |
| 2026-04-29 05:33 | 30.72910 | 133.61380 | 39014 ft | 504 kts | 46° |
| 2026-04-29 05:33 | 30.77278 | 133.67741 | 39008 ft | 503 kts | 47° |
| 2026-04-29 05:34 | 30.81651 | 133.74112 | 39009 ft | 505 kts | 47° |
| 2026-04-29 05:34 | 30.85999 | 133.80455 | 39010 ft | 504 kts | 46° |
| 2026-04-29 05:35 | 30.90355 | 133.86821 | 39015 ft | 503 kts | 46° |
| 2026-04-29 05:35 | 30.94723 | 133.93213 | 39003 ft | 505 kts | 46° |
| 2026-04-29 05:36 | 30.99097 | 133.99623 | 38995 ft | 505 kts | 46° |
| 2026-04-29 05:36 | 31.03440 | 134.06004 | 38997 ft | 504 kts | 46° |
| 2026-04-29 05:37 | 31.07805 | 134.12421 | 38992 ft | 504 kts | 46° |
| 2026-04-29 05:37 | 31.12152 | 134.18828 | 38995 ft | 504 kts | 46° |
| 2026-04-29 05:38 | 31.16472 | 134.25200 | 38996 ft | 504 kts | 46° |
| 2026-04-29 05:38 | 31.20816 | 134.31622 | 38992 ft | 504 kts | 46° |
| 2026-04-29 05:39 | 31.25173 | 134.38075 | 38995 ft | 505 kts | 46° |
| 2026-04-29 05:39 | 31.29511 | 134.44514 | 38996 ft | 504 kts | 46° |
| 2026-04-29 05:40 | 31.33830 | 134.50928 | 38995 ft | 504 kts | 47° |
| 2026-04-29 05:40 | 31.38173 | 134.57391 | 38996 ft | 504 kts | 46° |
| 2026-04-29 05:41 | 31.42477 | 134.63805 | 39000 ft | 505 kts | 46° |
| 2026-04-29 05:41 | 31.46835 | 134.70309 | 38994 ft | 505 kts | 47° |
| 2026-04-29 05:42 | 31.51168 | 134.76793 | 39003 ft | 505 kts | 47° |
| 2026-04-29 05:42 | 31.55479 | 134.83255 | 38996 ft | 505 kts | 47° |
| 2026-04-29 05:43 | 31.59806 | 134.89748 | 39001 ft | 505 kts | 47° |
| 2026-04-29 05:43 | 31.64118 | 134.96228 | 39001 ft | 506 kts | 47° |
| 2026-04-29 05:44 | 31.68444 | 135.02743 | 39000 ft | 506 kts | 47° |
| 2026-04-29 05:44 | 31.72863 | 135.09184 | 38999 ft | 504 kts | 43° |
| 2026-04-29 05:45 | 31.77524 | 135.15283 | 39004 ft | 503 kts | 42° |
| 2026-04-29 05:45 | 31.82206 | 135.21343 | 38999 ft | 504 kts | 42° |
| 2026-04-29 05:46 | 31.86902 | 135.27457 | 38992 ft | 502 kts | 42° |
| 2026-04-29 05:46 | 31.91565 | 135.33546 | 38995 ft | 504 kts | 42° |
| 2026-04-29 05:47 | 31.96255 | 135.39688 | 38985 ft | 503 kts | 42° |
| 2026-04-29 05:47 | 32.00918 | 135.45804 | 39000 ft | 503 kts | 42° |
| 2026-04-29 05:48 | 32.05597 | 135.51950 | 38988 ft | 503 kts | 42° |
| 2026-04-29 05:48 | 32.10259 | 135.58089 | 38987 ft | 502 kts | 42° |
| 2026-04-29 05:49 | 32.14934 | 135.64244 | 38988 ft | 504 kts | 41° |
| 2026-04-29 05:49 | 32.19598 | 135.70404 | 38982 ft | 503 kts | 43° |
| 2026-04-29 05:50 | 32.24257 | 135.76566 | 38984 ft | 503 kts | 42° |
| 2026-04-29 05:50 | 32.28914 | 135.82735 | 38983 ft | 504 kts | 42° |
| 2026-04-29 05:51 | 32.33576 | 135.88921 | 38980 ft | 504 kts | 42° |
| 2026-04-29 05:51 | 32.38220 | 135.95094 | 38977 ft | 504 kts | 42° |
| 2026-04-29 05:52 | 32.42881 | 136.01303 | 38977 ft | 504 kts | 43° |
| 2026-04-29 05:52 | 32.47549 | 136.07520 | 38975 ft | 504 kts | 42° |
| 2026-04-29 05:53 | 32.52184 | 136.13699 | 38977 ft | 504 kts | 42° |
| 2026-04-29 05:53 | 32.56831 | 136.19905 | 38978 ft | 505 kts | 42° |
| 2026-04-29 05:54 | 32.61505 | 136.26167 | 38979 ft | 504 kts | 42° |
| 2026-04-29 05:54 | 32.66129 | 136.32364 | 38981 ft | 505 kts | 42° |
| 2026-04-29 05:55 | 32.70785 | 136.38614 | 38978 ft | 505 kts | 42° |
| 2026-04-29 05:55 | 32.75394 | 136.44821 | 38978 ft | 504 kts | 41° |
| 2026-04-29 05:56 | 32.80043 | 136.51083 | 38979 ft | 502 kts | 41° |
| 2026-04-29 05:56 | 32.84646 | 136.57295 | 38985 ft | 504 kts | 41° |
| 2026-04-29 05:57 | 32.89281 | 136.63565 | 38978 ft | 503 kts | 41° |
| 2026-04-29 05:57 | 32.93886 | 136.69800 | 38978 ft | 503 kts | 41° |
| 2026-04-29 05:58 | 32.98507 | 136.76059 | 38975 ft | 503 kts | 42° |
| 2026-04-29 05:58 | 33.03109 | 136.82301 | 38976 ft | 504 kts | 41° |
| 2026-04-29 05:59 | 33.07703 | 136.88553 | 38981 ft | 501 kts | 41° |
| 2026-04-29 05:59 | 33.12297 | 136.94806 | 38978 ft | 501 kts | 41° |